Terminal Aerodrome Forecast
Issued by NWS

Home | Current Version | Previous Version | Text Only | Print | Product List | Glossary On
Versions: 1 2 3 4 5 6 7 8 9 10 11 12 13 14 15
000
FTUS45 KSLC 291120
TAFENV
TAF
KENV 291120Z 2912/3012 33006KT P6SM SCT070 SCT120
     FM291600 11007KT P6SM SCT070 BKN120
     FM292100 24009KT P6SM VCSH SCT040 BKN080
     FM300300 33007KT P6SM SCT070 BKN100
     FM300600 35007KT P6SM VCSH SCT060 BKN090
      AMD LTD TO CLD VIS AND WIND=

USA.gov is the U.S. government's official web portal to all federal, state and local government web resources and services.